createdAt,value
2019-03-28T00:01:08.087Z,8.70
2019-03-28T00:03:41.246Z,8.70
2019-03-28T00:06:13.809Z,8.70
2019-03-28T00:08:46.942Z,8.70
2019-03-28T00:11:19.021Z,8.70
2019-03-28T00:13:51.679Z,8.70
2019-03-28T00:16:24.309Z,8.70
2019-03-28T00:18:57.602Z,8.70
2019-03-28T00:21:30.338Z,8.70
2019-03-28T00:24:23.045Z,8.70
2019-03-28T00:26:56.130Z,8.60
2019-03-28T00:29:28.458Z,8.60
2019-03-28T00:32:01.510Z,8.60
2019-03-28T00:34:34.221Z,8.70
2019-03-28T00:37:07.653Z,8.60
2019-03-28T00:39:40.331Z,8.60
2019-03-28T00:42:12.685Z,8.60
2019-03-28T00:44:45.125Z,8.60
2019-03-28T00:47:18.319Z,8.60
2019-03-28T00:49:50.986Z,8.50
2019-03-28T00:52:23.780Z,8.50
2019-03-28T00:54:56.916Z,8.50
2019-03-28T00:57:29.665Z,8.50
2019-03-28T01:00:02.570Z,8.60
2019-03-28T01:02:36.338Z,8.50
2019-03-28T01:05:09.694Z,8.50
2019-03-28T01:07:42.895Z,8.60
2019-03-28T01:10:15.293Z,8.50
2019-03-28T01:12:47.416Z,8.60
2019-03-28T01:15:20.774Z,8.50
2019-03-28T01:17:53.610Z,8.60
2019-03-28T01:20:26.364Z,8.60
2019-03-28T01:22:59.236Z,8.60
2019-03-28T01:25:32.780Z,8.60
2019-03-28T01:28:06.134Z,8.70
2019-03-28T01:30:38.270Z,8.70
2019-03-28T01:33:11.699Z,8.70
2019-03-28T01:35:44.958Z,8.70
2019-03-28T01:38:18.480Z,8.70
2019-03-28T01:40:51.346Z,8.70
2019-03-28T01:43:24.012Z,8.70
2019-03-28T01:45:57.254Z,8.70
2019-03-28T01:48:30.228Z,8.70
2019-03-28T01:51:02.871Z,8.60
2019-03-28T01:53:34.955Z,8.70
2019-03-28T01:56:07.051Z,8.70
2019-03-28T01:58:40.322Z,8.70
2019-03-28T02:01:13.740Z,8.70
2019-03-28T02:03:46.188Z,8.70
2019-03-28T02:06:18.720Z,8.70
2019-03-28T02:08:50.555Z,8.70
2019-03-28T02:11:23.443Z,8.70
2019-03-28T02:13:58.055Z,8.70
2019-03-28T02:16:30.753Z,8.60
2019-03-28T02:19:04.233Z,8.60
2019-03-28T02:21:37.311Z,8.60
2019-03-28T02:24:10.073Z,8.60
2019-03-28T02:26:42.454Z,8.60
2019-03-28T02:29:15.376Z,8.70
2019-03-28T02:31:48.052Z,8.70
2019-03-28T02:34:21.314Z,8.60
2019-03-28T02:36:53.869Z,8.60
2019-03-28T02:39:26.383Z,8.60
2019-03-28T02:41:59.330Z,8.60
2019-03-28T02:44:31.537Z,8.60
2019-03-28T02:47:04.014Z,8.60
2019-03-28T02:49:37.379Z,8.60
2019-03-28T02:52:10.488Z,8.60
2019-03-28T02:54:42.908Z,8.60
2019-03-28T02:57:15.506Z,8.60
2019-03-28T02:59:48.855Z,8.60
2019-03-28T03:02:21.202Z,8.60
2019-03-28T03:04:53.077Z,8.60
2019-03-28T03:07:24.863Z,8.70
2019-03-28T03:09:57.198Z,8.70
2019-03-28T03:12:31.036Z,8.70
2019-03-28T03:15:03.713Z,8.60
2019-03-28T03:17:36.697Z,8.60
2019-03-28T03:20:11.596Z,8.60
2019-03-28T03:22:43.708Z,8.60
2019-03-28T03:25:15.947Z,8.60
2019-03-28T03:27:57.816Z,8.60
2019-03-28T03:30:22.901Z,8.60
2019-03-28T03:32:55.393Z,8.60
2019-03-28T03:35:28.634Z,8.60
2019-03-28T03:38:00.872Z,8.60
2019-03-28T03:40:33.283Z,8.60
2019-03-28T03:43:05.957Z,8.60
2019-03-28T03:45:38.042Z,8.60
2019-03-28T03:48:09.999Z,8.60
2019-03-28T03:50:42.423Z,8.60
2019-03-28T03:53:15.706Z,8.60
2019-03-28T03:55:48.384Z,8.60
2019-03-28T03:58:20.549Z,8.60
2019-03-28T04:00:53.200Z,8.60
2019-03-28T04:03:25.017Z,8.60
2019-03-28T04:05:57.402Z,8.50
2019-03-28T04:08:29.209Z,8.50
2019-03-28T04:11:01.234Z,8.50
2019-03-28T04:13:33.544Z,8.50
2019-03-28T04:16:05.730Z,8.50
2019-03-28T04:18:37.897Z,8.50
2019-03-28T04:21:09.726Z,8.40
2019-03-28T04:23:42.517Z,8.40
2019-03-28T04:26:14.939Z,8.50
2019-03-28T04:28:47.331Z,8.50
2019-03-28T04:31:19.841Z,8.50
2019-03-28T04:33:52.829Z,8.50
2019-03-28T04:36:25.018Z,8.50
2019-03-28T04:38:57.161Z,8.40
2019-03-28T04:41:29.594Z,8.40
2019-03-28T04:44:01.394Z,8.40
2019-03-28T04:46:33.916Z,8.40
2019-03-28T04:49:06.015Z,8.50
2019-03-28T04:51:38.133Z,8.50
2019-03-28T04:54:10.256Z,8.50
2019-03-28T04:56:42.540Z,8.40
2019-03-28T04:59:15.481Z,8.40
2019-03-28T05:01:59.661Z,8.40
2019-03-28T05:04:22.870Z,8.40
2019-03-28T05:06:54.996Z,8.40
2019-03-28T05:09:27.599Z,8.30
2019-03-28T05:12:00.230Z,8.30
2019-03-28T05:14:32.683Z,8.30
2019-03-28T05:17:04.833Z,8.30
2019-03-28T05:19:37.253Z,8.30
2019-03-28T05:22:10.653Z,8.30
2019-03-28T05:24:43.188Z,8.30
2019-03-28T05:27:16.704Z,8.30
2019-03-28T05:29:49.494Z,8.30
2019-03-28T05:32:21.974Z,8.30
2019-03-28T05:34:55.127Z,8.30
2019-03-28T05:37:27.451Z,8.30
2019-03-28T05:39:59.611Z,8.30
2019-03-28T05:42:32.075Z,8.30
2019-03-28T05:45:04.550Z,8.40
2019-03-28T05:47:37.583Z,8.40
2019-03-28T05:50:10.063Z,8.40
2019-03-28T05:52:42.142Z,8.40
2019-03-28T05:55:14.543Z,8.40
2019-03-28T05:57:46.571Z,8.50
2019-03-28T06:00:19.053Z,8.50
2019-03-28T06:02:52.159Z,8.50
2019-03-28T06:05:25.038Z,8.60
2019-03-28T06:07:57.124Z,8.60
2019-03-28T06:10:29.341Z,8.70
2019-03-28T06:13:01.389Z,8.70
2019-03-28T06:15:33.190Z,8.70
2019-03-28T06:18:05.591Z,8.70
2019-03-28T06:20:37.478Z,8.80
2019-03-28T06:23:09.616Z,8.80
2019-03-28T06:25:41.670Z,8.90
2019-03-28T06:28:13.912Z,8.90
2019-03-28T06:30:46.557Z,9.00
2019-03-28T06:33:19.329Z,9.10
2019-03-28T06:35:51.890Z,9.20
2019-03-28T06:38:24.459Z,9.30
2019-03-28T06:40:57.374Z,9.40
2019-03-28T06:43:29.883Z,9.50
2019-03-28T06:46:02.386Z,9.50
2019-03-28T06:48:34.653Z,9.60
2019-03-28T06:51:07.101Z,9.70
2019-03-28T06:53:39.222Z,9.70
2019-03-28T06:56:11.365Z,9.90
2019-03-28T06:58:44.158Z,9.90
2019-03-28T07:01:17.157Z,9.80
2019-03-28T07:03:49.562Z,9.80
2019-03-28T07:06:21.731Z,9.90
2019-03-28T07:08:54.294Z,9.90
2019-03-28T07:11:26.374Z,9.90
2019-03-28T07:14:00.071Z,9.90
2019-03-28T07:16:32.438Z,10.00
2019-03-28T07:19:04.817Z,10.00
2019-03-28T07:21:37.747Z,10.10
2019-03-28T07:24:10.260Z,10.20
2019-03-28T07:26:42.717Z,10.30
2019-03-28T07:29:15.418Z,10.30
2019-03-28T07:31:47.514Z,10.60
2019-03-28T07:34:20.428Z,10.70
2019-03-28T07:36:52.303Z,11.00
2019-03-28T07:39:24.803Z,11.20
2019-03-28T07:41:57.290Z,11.40
2019-03-28T07:44:30.177Z,11.60
2019-03-28T07:47:01.982Z,12.00
2019-03-28T07:49:37.562Z,12.60
2019-03-28T07:52:09.256Z,12.90
2019-03-28T07:54:42.266Z,13.20
2019-03-28T07:57:15.359Z,13.40
2019-03-28T07:59:48.125Z,13.60
2019-03-28T08:02:20.619Z,13.90
2019-03-28T08:04:53.026Z,14.10
2019-03-28T08:07:25.156Z,14.30
2019-03-28T08:09:57.580Z,14.40
2019-03-28T08:12:30.559Z,14.30
2019-03-28T08:15:03.251Z,14.40
2019-03-28T08:17:35.565Z,14.60
2019-03-28T08:20:10.241Z,14.80
2019-03-28T08:22:42.909Z,15.00
2019-03-28T08:25:16.179Z,15.00
2019-03-28T08:27:48.342Z,15.10
2019-03-28T08:30:34.444Z,15.10
2019-03-28T08:33:08.549Z,15.00
2019-03-28T08:35:40.818Z,14.90
2019-03-28T08:38:13.494Z,14.80
2019-03-28T08:40:47.443Z,14.90
2019-03-28T08:43:19.903Z,15.00
2019-03-28T08:45:52.539Z,15.10
2019-03-28T08:48:25.189Z,15.00
2019-03-28T08:50:57.775Z,14.90
2019-03-28T08:53:30.415Z,14.50
2019-03-28T08:56:02.611Z,14.40
2019-03-28T08:58:37.989Z,14.30
2019-03-28T09:01:08.908Z,14.20
2019-03-28T09:03:41.005Z,14.20
2019-03-28T09:06:16.906Z,14.20
2019-03-28T09:08:47.727Z,14.10
2019-03-28T09:11:21.569Z,13.90
2019-03-28T09:13:54.417Z,13.60
2019-03-28T09:16:27.349Z,13.30
2019-03-28T09:18:59.793Z,13.30
2019-03-28T09:21:31.692Z,13.20
2019-03-28T09:24:04.328Z,12.90
2019-03-28T09:26:36.962Z,12.80
2019-03-28T09:29:09.612Z,12.80
2019-03-28T09:31:42.786Z,12.90
2019-03-28T09:34:15.717Z,12.80
2019-03-28T09:36:48.110Z,12.90
2019-03-28T09:39:20.962Z,13.00
2019-03-28T09:41:54.065Z,13.00
2019-03-28T09:44:26.967Z,13.10
2019-03-28T09:47:00.294Z,13.30
2019-03-28T09:49:32.627Z,13.40
2019-03-28T09:52:05.107Z,13.50
2019-03-28T09:54:37.411Z,13.60
2019-03-28T09:57:10.389Z,13.60
2019-03-28T09:59:43.098Z,13.90
2019-03-28T10:02:15.773Z,14.00
2019-03-28T10:04:48.677Z,14.30
2019-03-28T10:07:20.739Z,14.80
2019-03-28T10:09:53.543Z,15.50
2019-03-28T10:12:26.441Z,16.40
2019-03-28T10:14:58.603Z,17.20
2019-03-28T10:17:30.476Z,17.70
2019-03-28T10:20:03.015Z,18.40
2019-03-28T10:22:35.632Z,18.80
2019-03-28T10:25:12.312Z,18.90
2019-03-28T10:27:42.949Z,19.60
2019-03-28T10:30:16.438Z,20.10
2019-03-28T10:32:48.672Z,19.90
2019-03-28T10:35:30.416Z,19.60
2019-03-28T10:38:02.721Z,19.80
2019-03-28T10:40:36.350Z,20.30
2019-03-28T10:43:09.232Z,20.40
2019-03-28T10:45:41.404Z,20.40
2019-03-28T10:48:14.549Z,20.20
2019-03-28T10:50:46.872Z,20.20
2019-03-28T10:53:19.487Z,19.90
2019-03-28T10:55:53.031Z,19.40
2019-03-28T10:58:25.299Z,18.90
2019-03-28T11:00:57.501Z,18.30
2019-03-28T11:03:30.305Z,17.90
2019-03-28T11:06:04.759Z,17.70
2019-03-28T11:08:36.956Z,17.10
2019-03-28T11:11:09.759Z,16.80
2019-03-28T11:13:42.091Z,17.00
2019-03-28T11:16:15.197Z,17.00
2019-03-28T11:18:47.902Z,17.20
2019-03-28T11:21:20.322Z,17.30
2019-03-28T11:23:52.626Z,17.30
2019-03-28T11:26:25.238Z,17.40
2019-03-28T11:28:57.133Z,17.20
2019-03-28T11:31:29.649Z,17.10
2019-03-28T11:34:02.966Z,16.70
2019-03-28T11:36:35.389Z,16.60
2019-03-28T11:39:10.053Z,16.40
2019-03-28T11:41:42.991Z,16.30
2019-03-28T11:44:15.393Z,16.20
2019-03-28T11:46:47.784Z,16.00
2019-03-28T11:49:20.579Z,15.90
2019-03-28T11:51:53.569Z,15.60
2019-03-28T11:54:26.329Z,15.30
2019-03-28T11:56:58.552Z,15.20
2019-03-28T11:59:31.217Z,15.10
2019-03-28T12:02:19.011Z,15.10
2019-03-28T12:04:38.825Z,15.30
2019-03-28T12:07:11.227Z,15.60
2019-03-28T12:09:43.777Z,15.80
2019-03-28T12:12:16.335Z,15.90
2019-03-28T12:14:48.513Z,16.10
2019-03-28T12:17:20.981Z,16.20
2019-03-28T12:19:53.672Z,16.10
2019-03-28T12:22:26.544Z,15.90
2019-03-28T12:24:59.620Z,15.80
2019-03-28T12:27:32.120Z,15.60
2019-03-28T12:30:05.446Z,15.30
2019-03-28T12:32:38.237Z,15.30
2019-03-28T12:35:12.095Z,15.00
2019-03-28T12:37:44.604Z,14.90
2019-03-28T12:40:18.080Z,14.70
2019-03-28T12:42:50.243Z,14.60
2019-03-28T12:45:22.657Z,14.60
2019-03-28T12:47:55.678Z,14.80
2019-03-28T12:50:27.957Z,15.00
2019-03-28T12:53:01.191Z,15.30
2019-03-28T12:55:33.575Z,15.40
2019-03-28T12:58:06.629Z,15.30
2019-03-28T13:00:41.925Z,15.10
2019-03-28T13:03:14.269Z,15.00
2019-03-28T13:05:47.006Z,14.80
2019-03-28T13:08:19.777Z,14.70
2019-03-28T13:10:52.449Z,14.70
2019-03-28T13:13:26.029Z,14.80
2019-03-28T13:15:57.933Z,14.70
2019-03-28T13:18:30.342Z,14.80
2019-03-28T13:21:13.270Z,14.90
2019-03-28T13:23:38.176Z,15.00
2019-03-28T13:26:10.690Z,15.10
2019-03-28T13:28:43.245Z,15.20
2019-03-28T13:31:15.688Z,15.20
2019-03-28T13:33:49.062Z,15.20
2019-03-28T13:36:21.802Z,15.00
2019-03-28T13:38:53.987Z,14.70
2019-03-28T13:41:27.024Z,14.70
2019-03-28T13:43:59.449Z,14.70
2019-03-28T13:46:32.626Z,14.60
2019-03-28T13:49:05.005Z,14.50
2019-03-28T13:51:37.459Z,14.50
2019-03-28T13:54:09.805Z,14.60
2019-03-28T13:56:42.260Z,14.60
2019-03-28T13:59:15.200Z,14.60
2019-03-28T14:01:47.953Z,14.60
2019-03-28T14:04:20.414Z,14.70
2019-03-28T14:06:53.616Z,14.60
2019-03-28T14:09:26.034Z,14.60
2019-03-28T14:11:58.731Z,14.50
2019-03-28T14:14:32.680Z,14.50
2019-03-28T14:17:04.821Z,14.40
2019-03-28T14:19:37.499Z,14.30
2019-03-28T14:22:10.177Z,14.10
2019-03-28T14:24:42.957Z,14.00
2019-03-28T14:27:16.480Z,13.90
2019-03-28T14:29:48.406Z,13.90
2019-03-28T14:32:20.808Z,14.00
2019-03-28T14:34:53.314Z,14.00
2019-03-28T14:37:25.595Z,14.00
2019-03-28T14:39:58.028Z,14.10
2019-03-28T14:42:30.561Z,14.10
2019-03-28T14:45:02.660Z,14.00
2019-03-28T14:47:34.781Z,14.00
2019-03-28T14:50:08.427Z,14.00
2019-03-28T14:52:40.898Z,14.20
2019-03-28T14:55:13.447Z,14.30
2019-03-28T14:57:46.094Z,14.40
2019-03-28T15:00:42.219Z,14.40
2019-03-28T15:03:24.886Z,14.30
2019-03-28T15:05:48.766Z,14.30
2019-03-28T15:08:20.837Z,14.30
2019-03-28T15:10:53.170Z,14.30
2019-03-28T15:13:25.599Z,14.30
2019-03-28T15:15:57.768Z,14.30
2019-03-28T15:18:30.489Z,14.40
2019-03-28T15:21:02.891Z,14.30
2019-03-28T15:23:35.333Z,14.40
2019-03-28T15:26:07.769Z,14.30
2019-03-28T15:28:40.093Z,14.30
2019-03-28T15:31:12.740Z,14.20
2019-03-28T15:33:45.903Z,14.20
2019-03-28T15:36:18.487Z,14.30
2019-03-28T15:38:51.353Z,14.20
2019-03-28T15:41:23.794Z,14.20
2019-03-28T15:43:56.462Z,14.10
2019-03-28T15:46:28.650Z,14.00
2019-03-28T15:49:01.765Z,14.00
2019-03-28T15:51:34.611Z,14.00
2019-03-28T15:54:06.802Z,14.00
2019-03-28T15:56:39.249Z,14.00
2019-03-28T15:59:11.561Z,13.90
2019-03-28T16:01:44.602Z,13.90
2019-03-28T16:04:17.295Z,13.80
2019-03-28T16:06:49.765Z,13.70
2019-03-28T16:09:22.137Z,13.70
2019-03-28T16:12:02.380Z,13.60
2019-03-28T16:14:29.572Z,13.50
2019-03-28T16:17:02.063Z,13.40
2019-03-28T16:19:35.919Z,13.40
2019-03-28T16:22:08.702Z,13.40
2019-03-28T16:24:40.508Z,13.40
2019-03-28T16:27:12.926Z,13.40
2019-03-28T16:29:45.258Z,13.30
2019-03-28T16:32:18.074Z,13.20
2019-03-28T16:34:50.654Z,13.10
2019-03-28T16:37:23.169Z,13.10
2019-03-28T16:39:55.835Z,12.90
2019-03-28T16:42:28.456Z,12.80
2019-03-28T16:45:00.638Z,12.80
2019-03-28T16:47:32.755Z,12.80
2019-03-28T16:50:04.863Z,12.70
2019-03-28T16:52:37.541Z,12.70
2019-03-28T16:55:10.443Z,12.60
2019-03-28T16:57:42.916Z,12.50
2019-03-28T17:00:16.428Z,12.50
2019-03-28T17:02:49.282Z,12.40
2019-03-28T17:05:21.747Z,12.40
2019-03-28T17:07:56.526Z,12.40
2019-03-28T17:10:46.702Z,12.40
2019-03-28T17:13:20.944Z,12.40
2019-03-28T17:15:53.726Z,12.30
2019-03-28T17:18:26.209Z,12.30
2019-03-28T17:20:58.715Z,12.30
2019-03-28T17:23:31.539Z,12.30
2019-03-28T17:26:10.736Z,12.30
2019-03-28T17:28:43.333Z,12.20
2019-03-28T17:31:15.895Z,12.20
2019-03-28T17:33:48.285Z,12.20
2019-03-28T17:36:20.827Z,12.10
2019-03-28T17:38:53.522Z,12.00
2019-03-28T17:41:25.934Z,12.00
2019-03-28T17:43:58.689Z,11.90
2019-03-28T17:46:31.036Z,11.80
2019-03-28T17:49:03.123Z,11.80
2019-03-28T17:51:36.587Z,11.70
2019-03-28T17:54:08.948Z,11.60
2019-03-28T17:56:42.715Z,11.60
2019-03-28T17:59:15.892Z,11.50
2019-03-28T18:01:48.176Z,11.50
2019-03-28T18:04:22.989Z,11.50
2019-03-28T18:06:55.038Z,11.50
2019-03-28T18:09:27.671Z,11.50
2019-03-28T18:12:00.056Z,11.40
2019-03-28T18:14:32.430Z,11.50
2019-03-28T18:17:05.388Z,11.40
2019-03-28T18:19:39.167Z,11.40
2019-03-28T18:22:12.037Z,11.40
2019-03-28T18:24:44.453Z,11.40
2019-03-28T18:27:20.312Z,11.40
2019-03-28T18:29:53.694Z,11.40
2019-03-28T18:32:26.296Z,11.40
2019-03-28T18:35:05.176Z,11.40
2019-03-28T18:37:33.367Z,11.50
2019-03-28T18:40:06.387Z,11.50
2019-03-28T18:42:40.046Z,11.40
2019-03-28T18:45:13.567Z,11.50
2019-03-28T18:47:45.787Z,11.40
2019-03-28T18:50:18.390Z,11.40
2019-03-28T18:52:50.355Z,11.40
2019-03-28T18:55:22.450Z,11.40
2019-03-28T18:57:54.732Z,11.40
2019-03-28T19:00:26.978Z,11.40
2019-03-28T19:02:59.554Z,11.40
2019-03-28T19:05:32.461Z,11.40
2019-03-28T19:08:05.048Z,11.40
2019-03-28T19:10:37.829Z,11.50
2019-03-28T19:13:10.194Z,11.50
2019-03-28T19:15:42.801Z,11.40
2019-03-28T19:18:15.330Z,11.40
2019-03-28T19:20:48.015Z,11.40
2019-03-28T19:23:20.448Z,11.30
2019-03-28T19:25:52.636Z,11.30
2019-03-28T19:28:29.062Z,11.30
2019-03-28T19:30:59.203Z,11.40
2019-03-28T19:33:31.918Z,11.40
2019-03-28T19:36:04.815Z,11.30
2019-03-28T19:38:38.632Z,11.30
2019-03-28T19:41:10.745Z,11.30
2019-03-28T19:43:42.982Z,11.40
2019-03-28T19:46:15.206Z,11.30
2019-03-28T19:48:48.091Z,11.30
2019-03-28T19:51:21.180Z,11.30
2019-03-28T19:53:53.252Z,11.30
2019-03-28T19:56:25.882Z,11.30
2019-03-28T19:58:59.149Z,11.30
2019-03-28T20:01:31.530Z,11.30
2019-03-28T20:04:04.174Z,11.30
2019-03-28T20:06:36.289Z,11.30
2019-03-28T20:09:16.149Z,11.20
2019-03-28T20:11:43.638Z,11.20
2019-03-28T20:14:16.047Z,11.20
2019-03-28T20:16:48.678Z,11.30
2019-03-28T20:19:21.095Z,11.30
2019-03-28T20:21:53.745Z,11.20
2019-03-28T20:24:25.942Z,11.20
2019-03-28T20:26:58.143Z,11.20
2019-03-28T20:29:33.246Z,11.20
2019-03-28T20:32:08.133Z,11.20
2019-03-28T20:34:39.340Z,11.20
2019-03-28T20:37:12.044Z,11.20
2019-03-28T20:39:44.517Z,11.10
2019-03-28T20:42:16.665Z,11.10
2019-03-28T20:44:48.980Z,11.10
2019-03-28T20:47:21.495Z,11.10
2019-03-28T20:49:54.112Z,11.10
2019-03-28T20:52:26.246Z,11.10
2019-03-28T20:54:59.744Z,11.10
2019-03-28T20:57:32.485Z,11.10
2019-03-28T21:00:08.307Z,11.00
2019-03-28T21:02:39.594Z,11.10
2019-03-28T21:05:14.484Z,11.00
2019-03-28T21:07:47.486Z,11.10
2019-03-28T21:10:38.592Z,11.00
2019-03-28T21:13:11.248Z,11.10
2019-03-28T21:15:44.172Z,11.10
2019-03-28T21:18:16.805Z,11.20
2019-03-28T21:20:48.619Z,11.10
2019-03-28T21:23:21.310Z,11.10
2019-03-28T21:25:53.928Z,11.00
2019-03-28T21:28:26.389Z,11.10
2019-03-28T21:30:59.314Z,11.10
2019-03-28T21:33:31.671Z,11.10
2019-03-28T21:36:04.893Z,11.10
2019-03-28T21:38:37.783Z,11.10
2019-03-28T21:41:09.980Z,11.10
2019-03-28T21:43:42.377Z,11.10
2019-03-28T21:46:14.743Z,11.10
2019-03-28T21:48:47.388Z,11.10
2019-03-28T21:51:20.216Z,11.10
2019-03-28T21:53:52.807Z,11.10
2019-03-28T21:56:25.860Z,11.10
2019-03-28T21:58:59.037Z,11.10
2019-03-28T22:01:32.705Z,11.10
2019-03-28T22:04:04.997Z,11.20
2019-03-28T22:06:42.770Z,11.10
2019-03-28T22:09:11.842Z,11.00
2019-03-28T22:11:44.268Z,11.00
2019-03-28T22:14:16.757Z,11.00
2019-03-28T22:16:49.851Z,11.00
2019-03-28T22:19:22.366Z,11.00
2019-03-28T22:21:54.858Z,11.00
2019-03-28T22:24:27.603Z,10.90
2019-03-28T22:27:00.060Z,11.00
2019-03-28T22:29:32.121Z,11.00
2019-03-28T22:32:04.331Z,11.00
2019-03-28T22:34:36.280Z,11.00
2019-03-28T22:37:08.664Z,11.00
2019-03-28T22:39:41.121Z,11.10
2019-03-28T22:42:14.985Z,11.10
2019-03-28T22:44:47.488Z,11.10
2019-03-28T22:47:19.858Z,11.00
2019-03-28T22:49:52.337Z,11.00
2019-03-28T22:52:24.511Z,11.00
2019-03-28T22:54:56.572Z,10.90
2019-03-28T22:57:29.046Z,11.00
2019-03-28T23:00:04.118Z,10.90
2019-03-28T23:02:36.683Z,10.90
2019-03-28T23:05:10.040Z,10.90
2019-03-28T23:07:42.235Z,10.90
2019-03-28T23:10:14.802Z,10.80
2019-03-28T23:12:47.988Z,10.90
2019-03-28T23:15:21.896Z,11.00
2019-03-28T23:17:54.817Z,10.90
2019-03-28T23:20:28.125Z,10.90
2019-03-28T23:23:00.226Z,10.80
2019-03-28T23:25:32.606Z,10.80
2019-03-28T23:28:05.492Z,10.90
2019-03-28T23:30:38.561Z,10.80
2019-03-28T23:33:11.146Z,10.80
2019-03-28T23:35:43.388Z,10.90
2019-03-28T23:38:16.162Z,10.80
2019-03-28T23:40:48.725Z,10.90
2019-03-28T23:43:21.367Z,10.90
2019-03-28T23:45:54.020Z,10.90
2019-03-28T23:48:26.416Z,10.90
2019-03-28T23:50:59.006Z,11.00
2019-03-28T23:53:31.938Z,10.90
2019-03-28T23:56:04.524Z,10.90
2019-03-28T23:58:37.137Z,10.90
